Flight Track Log - Related Links

Times and Time Zones

All times are in EST time to prevent confusion due to time zone crossing. See the AFL150 flight status page for this flight to view local times or setup timezone preferences in your user account.

Time Position Orientation Groundspeed Altitude Reporting Facility
EST Latitude Longitude Course Direction KTS MPH feet Rate Location/Type
Sun 04:47:00 AM 56.0322 36.9793 307° West  Level Estimated
Sun 04:48:00 AM 56.1030 36.8073 306° West  Level Estimated
Sun 04:49:00 AM 56.1736 36.6345 306° West  Level Estimated
Sun 04:50:00 AM 56.2439 36.4612 306° West  Level Estimated
Sun 04:51:00 AM 56.3140 36.2872 306° West  Level Estimated
Sun 04:52:00 AM 56.3839 36.1126 306° West  Level Estimated
Sun 04:53:00 AM 56.4534 35.9373 306° West  Level Estimated
Sun 04:54:00 AM 56.5228 35.7614 306° West  Level Estimated
Sun 04:55:00 AM 56.5919 35.5849 305° West  Level Estimated
Sun 04:56:00 AM 56.6608 35.4077 305° West  Level Estimated
Sun 04:57:00 AM 56.7294 35.2299 305° West  Level Estimated
Sun 04:58:00 AM 56.7977 35.0514 305° West  Level Estimated
Sun 04:59:00 AM 56.8658 34.8722 305° West  Level Estimated
Sun 05:00:00 AM 56.9336 34.6924 305° West  Level Estimated
Sun 05:01:00 AM 57.0012 34.5120 305° West  Level Estimated
Sun 05:02:00 AM 57.0685 34.3309 304° West  Level Estimated
Sun 05:03:00 AM 57.1355 34.1491 304° West  Level Estimated
Sun 05:04:00 AM 57.2023 33.9667 304° West  Level Estimated
Sun 05:05:00 AM 57.2688 33.7836 304° West  Level Estimated
Sun 05:06:00 AM 57.3351 33.5999 304° West  Level Estimated
Sun 05:07:00 AM 57.4011 33.4155 304° West  Level Estimated
Sun 05:08:00 AM 57.4668 33.2304 303° West  Level Estimated
Sun 05:09:00 AM 57.5322 33.0447 303° West  Level Estimated
Sun 05:10:00 AM 57.5974 32.8583 303° West  Level Estimated
Sun 05:11:00 AM 57.6623 32.6712 303° West  Level Estimated
Sun 05:12:00 AM 57.7269 32.4835 303° West  Level Estimated
Sun 05:12:12 AM 56.4690 32.1530 303° West 434 499 34,000  Level FlightAware ADS-B
Sun 05:13:17 AM 56.4663 32.1858 98° East 436 502 34,000  Level FlightAware ADS-B
Sun 05:14:39 AM 56.5115 31.6246 279° West 434 499 34,000  Level FlightAware ADS-B
Sun 05:15:17 AM 56.5220 31.4900 278° West 433 498 34,000  Level FlightAware ADS-B
Sun 05:16:16 AM 56.5394 31.2837 279° West 435 501 34,000  Level FlightAware ADS-B
Sun 05:17:14 AM 56.5772 31.0779 289° West 440 506 34,000  Level FlightAware ADS-B
Sun 05:18:16 AM 56.6403 30.8840 301° West 446 513 34,000  Level FlightAware ADS-B
Sun 05:19:16 AM 56.7218 30.7067 310° West 446 513 34,000  Level FlightAware ADS-B
Sun 05:20:15 AM 56.7902 30.5251 305° West 443 510 34,000  Level FlightAware ADS-B
Sun 05:21:17 AM 56.8601 30.3381 304° West 442 509 34,000  Level FlightAware ADS-B
Sun 05:22:17 AM 56.9286 30.1516 304° West 441 507 34,000  Level FlightAware ADS-B
Sun 05:23:16 AM 56.9957 29.9678 304° West 442 509 34,000  Level FlightAware ADS-B
Sun 05:24:16 AM 57.0636 29.7801 304° West 444 511 34,000  Level FlightAware ADS-B
Sun 05:25:15 AM 57.1303 29.5941 304° West 446 513 34,000  Level FlightAware ADS-B
Sun 05:26:16 AM 57.1989 29.4013 303° West 448 516 34,000  Level FlightAware ADS-B
Sun 05:27:16 AM 57.2654 29.2136 303° West 437 503 34,000  Level FlightAware ADS-B
Sun 05:28:16 AM 57.3312 29.0261 303° West 435 501 34,000  Level FlightAware ADS-B
Sun 05:29:15 AM 57.3963 28.8398 303° West 435 501 34,000  Level FlightAware ADS-B
Sun 05:30:24 AM 57.4704 28.6252 303° West 439 505 34,000  Level FlightAware ADS-B
Sun 05:31:24 AM 57.5337 28.4403 303° West 441 507 34,000  Level FlightAware ADS-B
Sun 05:32:23 AM 57.5993 28.2476 302° West 440 506 34,000  Level FlightAware ADS-B
Sun 05:33:23 AM 57.6655 28.0509 302° West 443 510 34,000  Level FlightAware ADS-B
Sun 05:34:24 AM 57.7296 27.8599 302° West 443 510 34,000  Level FlightAware ADS-B
Sun 05:35:24 AM 57.7955 27.6617 302° West 445 512 34,000  Level FlightAware ADS-B
Sun 05:36:23 AM 57.8521 27.4644 298° West 433 498 34,000  Level FlightAware ADS-B
Sun 05:37:24 AM 57.8933 27.2499 290° West 437 503 34,000  Level FlightAware ADS-B
Sun 05:38:24 AM 57.9340 27.0362 290° West 439 505 34,000  Level FlightAware ADS-B
Sun 05:39:23 AM 57.9750 26.8168 290° West 442 509 34,000  Level FlightAware ADS-B
Sun 05:40:24 AM 58.0149 26.6007 289° West 443 510 34,000  Level FlightAware ADS-B
Sun 05:41:23 AM 58.0548 26.3822 289° West 444 511 34,000  Level FlightAware ADS-B
Sun 05:42:23 AM 58.0944 26.1626 289° West 446 513 34,000  Level FlightAware ADS-B
Sun 05:43:24 AM 58.1336 25.9429 289° West 445 512 34,000  Level FlightAware ADS-B
Sun 05:44:25 AM 58.1744 25.7111 289° West 446 513 34,000  Level FlightAware ADS-B
Sun 05:45:25 AM 58.2128 25.4902 288° West 451 519 34,000  Level FlightAware ADS-B
Sun 05:46:05 AM 58.2388 25.3401 288° West 454 522 34,000  Level FlightAware ADS-B
Sun 05:47:17 AM 58.2855 25.0661 288° West 453 521 34,000  Level FlightAware ADS-B
Sun 05:48:17 AM 58.3233 24.8414 288° West 451 519 34,000  Level FlightAware ADS-B
Sun 05:49:15 AM 58.3598 24.6222 288° West 447 514 34,000  Level FlightAware ADS-B
Sun 05:50:04 AM 58.3871 24.4557 287° West 445 512 34,000  Level FlightAware ADS-B
Sun 05:53:17 AM 58.3871 24.4557 296° West 445 512 34,000  Level FlightAware ADS-B
Sun 06:03:35 AM 58.8421 21.4701 295° West 446 513 34,000  Level FlightAware ADS-B
Sun 06:04:16 AM 58.8627 21.3508 289° West 448 516 34,000  Level FlightAware ADS-B
Sun 06:04:57 AM 58.8928 21.1722 288° West 447 514 34,000  Level FlightAware ADS-B
Sun 06:05:36 AM 58.9188 21.0159 288° West 445 512 34,000  Level FlightAware ADS-B
Sun 06:06:36 AM 58.9568 20.7844 288° West 445 512 34,000  Level FlightAware ADS-B
Sun 06:07:37 AM 58.9926 20.5628 288° West 444 511 34,000  Level FlightAware ADS-B
Sun 06:08:20 AM 59.0184 20.4026 287° West 444 511 34,000  Level FlightAware ADS-B
Sun 06:08:59 AM 59.0431 20.2474 287° West 444 511 34,000  Level FlightAware ADS-B
Sun 06:09:38 AM 59.0666 20.0976 287° West 445 512 34,000  Level FlightAware ADS-B
Sun 06:10:20 AM 59.0902 19.9460 287° West 446 513 34,000  Level FlightAware ADS-B
Sun 06:10:59 AM 59.1152 19.7843 287° West 446 513 34,000  Level FlightAware ADS-B
Sun 06:11:40 AM 59.1391 19.6288 287° West 446 513 34,000  Level FlightAware ADS-B
Sun 06:12:20 AM 59.1628 19.4723 287° West 446 513 34,000  Level FlightAware ADS-B
Sun 06:12:59 AM 59.1847 19.3271 286° West 445 512 34,000  Level FlightAware ADS-B
Sun 06:13:41 AM 59.2080 19.1708 286° West 443 510 34,000  Level FlightAware ADS-B
Sun 06:14:23 AM 59.2325 19.0043 286° West 443 510 34,000  Level FlightAware ADS-B
Sun 06:15:03 AM 59.2531 18.8633 286° West 443 510 34,000  Level FlightAware ADS-B
Sun 06:15:45 AM 59.2771 18.6982 286° West 444 511 34,000  Level FlightAware ADS-B
Sun 06:16:25 AM 59.3006 18.5338 286° West 444 511 34,000  Level FlightAware ADS-B
Sun 06:17:05 AM 59.3224 18.3806 286° West 444 511 34,000  Level FlightAware ADS-B
Sun 06:17:45 AM 59.3443 18.2251 285° West 443 510 34,000  Level FlightAware ADS-B
Sun 06:18:24 AM 59.3642 18.0820 285° West 443 510 34,000  Level FlightAware ADS-B
Sun 06:19:04 AM 59.3868 17.9182 285° West 443 510 34,000  Level FlightAware ADS-B
Sun 06:19:45 AM 59.4084 17.7603 285° West 444 511 34,000  Level FlightAware ADS-B
Sun 06:20:24 AM 59.4288 17.6088 285° West 444 511 34,000  Level FlightAware ADS-B
Sun 06:21:04 AM 59.4497 17.4521 285° West 443 510 34,000  Level FlightAware ADS-B
Sun 06:21:46 AM 59.4696 17.3019 285° West 443 510 34,000  Level FlightAware ADS-B
Sun 06:22:26 AM 59.4911 17.1382 285° West 444 511 34,000  Level FlightAware ADS-B
Sun 06:23:06 AM 59.5120 16.9774 284° West 445 512 34,000  Level FlightAware ADS-B
Sun 06:23:46 AM 59.5324 16.8195 284° West 446 513 34,000  Level FlightAware ADS-B
Sun 06:24:26 AM 59.5515 16.6686 284° West 446 513 34,000  Level FlightAware ADS-B
Sun 06:25:06 AM 59.5713 16.5107 284° West 447 514 34,000  Level FlightAware ADS-B
Sun 06:25:43 AM 59.5895 16.3635 284° West 447 514 34,000  Level FlightAware ADS-B
Sun 06:26:26 AM 59.6102 16.1956 284° West 448 516 34,000  Level FlightAware ADS-B
Sun 06:26:42 AM 59.6185 16.1281 284° West 446 513 34,000  Level FlightAware ADS-B
Sun 06:27:15 AM 59.6344 15.9970 284° West 445 512 34,000  Level FlightAware ADS-B
Sun 06:27:45 AM 59.6483 15.8816 283° West 445 512 34,000  Level FlightAware ADS-B
Sun 06:28:15 AM 59.6628 15.7590 283° West 444 511 34,000  Level FlightAware ADS-B
Sun 06:29:00 AM 59.6837 15.5825 283° West 444 511 34,000  Level FlightAware ADS-B
Sun 06:29:30 AM 59.6976 15.4637 283° West 444 511 34,000  Level FlightAware ADS-B
Sun 06:30:15 AM 59.7179 15.2876 283° West 441 507 34,000  Level FlightAware ADS-B
Sun 06:30:45 AM 59.7312 15.1701 283° West 442 509 34,000  Level FlightAware ADS-B
Sun 06:31:15 AM 59.7446 15.0517 283° West 443 510 34,000  Level FlightAware ADS-B
Sun 06:31:45 AM 59.7583 14.9301 283° West 444 511 34,000  Level FlightAware ADS-B
Sun 06:32:15 AM 59.7716 14.8109 282° West 444 511 34,000  Level FlightAware ADS-B
Sun 06:32:45 AM 59.7845 14.6939 282° West 443 510 34,000  Level FlightAware ADS-B
Sun 06:33:15 AM 59.7978 14.5725 282° West 444 511 34,000  Level FlightAware ADS-B
Sun 06:34:00 AM 59.8170 14.3940 282° West 446 513 34,000  Level FlightAware ADS-B
Sun 06:34:30 AM 59.8301 14.2715 282° West 447 514 34,000  Level FlightAware ADS-B
Sun 06:35:00 AM 59.8425 14.1531 282° West 447 514 34,000  Level FlightAware ADS-B
Sun 06:35:45 AM 59.8617 13.9703 282° West 447 514 34,000  Level FlightAware ADS-B
Sun 06:36:15 AM 59.8740 13.8504 282° West 445 512 34,000  Level FlightAware ADS-B
Sun 06:36:45 AM 59.8863 13.7296 282° West 445 512 34,000  Level FlightAware ADS-B
Sun 06:37:15 AM 59.8983 13.6105 281° West 444 511 34,000  Level FlightAware ADS-B
Sun 06:37:45 AM 59.9103 13.4912 281° West 446 513 34,000  Level FlightAware ADS-B
Sun 06:38:29 AM 59.9283 13.3103 281° West 448 516 34,000  Level FlightAware ADS-B
Sun 06:39:00 AM 59.9406 13.1861 281° West 448 516 34,000  Level FlightAware ADS-B
Sun 06:39:30 AM 59.9583 13.0671 287° West 449 517 34,000  Level FlightAware ADS-B
Sun 06:40:15 AM 59.9849 12.8891 287° West 449 517 34,000  Level FlightAware ADS-B
Sun 06:40:45 AM 60.0027 12.7693 287° West 447 514 34,000  Level FlightAware ADS-B
Sun 06:41:15 AM 60.0199 12.6532 287° West 444 511 34,000  Level FlightAware ADS-B
Sun 06:41:45 AM 60.0372 12.5347 286° West 444 511 34,000  Level FlightAware ADS-B
Sun 06:42:29 AM 60.0627 12.3581 286° West 444 511 34,000  Level FlightAware ADS-B
Sun 06:43:00 AM 60.0800 12.2380 286° West 445 512 34,000  Level FlightAware ADS-B
Sun 06:43:30 AM 60.0967 12.1204 286° West 445 512 34,000  Level FlightAware ADS-B
Sun 06:44:00 AM 60.1135 12.0020 286° West 444 511 34,000  Level FlightAware ADS-B
Sun 06:44:36 AM 60.1331 11.8625 286° West 443 510 34,000  Level FlightAware ADS-B
Sun 06:45:14 AM 60.1546 11.7084 286° West 443 510 34,000 110 Level FlightAware ADS-B
Sun 07:02:43 AM 60.6617 7.5059 282° West 436 502 36,000 111 Climbing FlightAware ADS-B
Sun 07:03:13 AM 60.6743 7.3834 282° West 436 502 36,000  Level FlightAware ADS-B
Sun 07:03:43 AM 60.6866 7.2635 282° West 435 501 36,000  Level FlightAware ADS-B
Sun 07:04:13 AM 60.6987 7.1433 282° West 432 497 36,000  Level FlightAware ADS-B
Sun 07:04:52 AM 60.7143 6.9868 282° West 431 496 36,000  Level FlightAware ADS-B
Sun 07:05:33 AM 60.7303 6.8248 281° West 430 495 36,000  Level FlightAware ADS-B
Sun 07:06:04 AM 60.7420 6.7028 281° West 430 495 36,000  Level FlightAware ADS-B
Sun 07:06:34 AM 60.7535 6.5841 281° West 431 496 36,000  Level FlightAware ADS-B
Sun 07:07:13 AM 60.7685 6.4258 281° West 431 496 36,000  Level FlightAware ADS-B
Sun 07:07:43 AM 60.7799 6.3044 281° West 433 498 36,000  Level FlightAware ADS-B
Sun 07:08:14 AM 60.7912 6.1833 281° West 434 499 36,000  Level FlightAware ADS-B
Sun 07:08:44 AM 60.8024 6.0616 281° West 436 502 36,000  Level FlightAware ADS-B
Sun 07:09:22 AM 60.8167 5.9051 281° West 437 503 36,000  Level FlightAware ADS-B
Sun 07:09:53 AM 60.8278 5.7821 281° West 438 504 36,000  Level FlightAware ADS-B
Sun 07:10:33 AM 60.8422 5.6188 280° West 438 504 36,000  Level FlightAware ADS-B
Sun 07:11:13 AM 60.8565 5.4554 280° West 437 503 36,000  Level FlightAware ADS-B
Sun 07:13:00 AM 60.8923 5.0244 280° West  Level Estimated
Sun 07:14:00 AM 60.9118 4.7823 280° West  Level Estimated
Sun 07:15:00 AM 60.9309 4.5399 279° West  Level Estimated
Sun 07:16:00 AM 60.9495 4.2972 279° West  Level Estimated
Sun 07:17:00 AM 60.9677 4.0542 279° West  Level Estimated
Sun 07:18:00 AM 60.9854 3.8110 279° West  Level Estimated
Sun 07:19:00 AM 61.0027 3.5675 278° West  Level Estimated
Sun 07:20:00 AM 61.0196 3.3237 278° West  Level Estimated
Sun 07:21:00 AM 61.0360 3.0797 278° West  Level Estimated
Sun 07:22:00 AM 61.0520 2.8354 278° West  Level Estimated
Sun 07:23:00 AM 61.0675 2.5909 278° West  Level Estimated
Sun 07:24:00 AM 61.0826 2.3461 277° West  Level Estimated
Sun 07:25:00 AM 61.0973 2.1011 277° West  Level Estimated
Sun 07:26:00 AM 61.1115 1.8559 277° West  Level Estimated
Sun 07:27:00 AM 61.1253 1.6105 277° West  Level Estimated
Sun 07:28:00 AM 61.1386 1.3648 277° West  Level Estimated
Sun 07:29:00 AM 61.1515 1.1190 276° West  Level Estimated
Sun 07:30:00 AM 61.1639 0.8730 276° West  Level Estimated
Sun 07:31:00 AM 61.1759 0.6267 276° West  Level Estimated
Sun 07:32:00 AM 61.1874 0.3803 276° West  Level Estimated
Sun 07:33:00 AM 61.1985 0.1337 275° West  Level Estimated
Sun 07:34:00 AM 61.2092 -0.1130 275° West  Level Estimated
Sun 07:35:00 AM 61.2193 -0.3600 275° West  Level Estimated
Sun 07:36:00 AM 61.2291 -0.6070 275° West  Level Estimated
Sun 07:37:00 AM 61.2384 -0.8543 275° West  Level Estimated
Sun 07:38:00 AM 61.2472 -1.1016 274° West  Level Estimated
Sun 07:39:00 AM 61.2556 -1.3491 274° West  Level Estimated
Sun 07:40:00 AM 61.2635 -1.5968 274° West  Level Estimated
Sun 07:41:00 AM 61.2710 -1.8445 274° West  Level Estimated
Sun 07:42:00 AM 61.2781 -2.0924 273° West  Level Estimated
Sun 07:43:00 AM 61.2847 -2.3404 273° West  Level Estimated
Sun 07:44:00 AM 61.2908 -2.5885 273° West  Level Estimated
Sun 07:45:00 AM 61.2965 -2.8366 273° West  Level Estimated
Sun 07:46:00 AM 61.3017 -3.0849 273° West  Level Estimated
Sun 07:47:00 AM 61.3065 -3.3332 272° West  Level Estimated
Sun 07:48:00 AM 61.3108 -3.5817 272° West  Level Estimated
Sun 07:49:00 AM 61.3147 -3.8301 272° West  Level Estimated
Sun 07:50:00 AM 61.3181 -4.0787 272° West  Level Estimated
Sun 07:51:00 AM 61.3210 -4.3272 272° West  Level Estimated
Sun 07:52:00 AM 61.3236 -4.5759 271° West  Level Estimated
Sun 07:53:00 AM 61.3256 -4.8245 271° West  Level Estimated
Sun 07:54:00 AM 61.3272 -5.0732 271° West  Level Estimated
Sun 07:55:00 AM 61.3284 -5.3219 271° West  Level Estimated
Sun 07:56:00 AM 61.3290 -5.5707 270° West  Level Estimated
Sun 07:57:00 AM 61.3293 -5.8194 270° West  Level Estimated
Sun 07:58:00 AM 61.3290 -6.0681 270° West  Level Estimated
Sun 07:59:00 AM 61.3284 -6.3169 270° West  Level Estimated
Sun 08:00:00 AM 61.3273 -6.5656 270° West  Level Estimated
Sun 08:01:00 AM 61.3257 -6.8143 269° West  Level Estimated
Sun 08:02:00 AM 61.3236 -7.0629 269° West  Level Estimated
Sun 08:03:00 AM 61.3211 -7.3116 269° West  Level Estimated
Sun 08:04:00 AM 61.3182 -7.5602 269° West  Level Estimated
Sun 08:05:00 AM 61.3148 -7.8087 268° West  Level Estimated
Sun 08:06:00 AM 61.3109 -8.0572 268° West  Level Estimated
Sun 08:07:00 AM 61.3066 -8.3056 268° West  Level Estimated
Sun 08:08:00 AM 61.3019 -8.5539 268° West  Level Estimated
Sun 08:09:00 AM 61.2967 -8.8022 268° West  Level Estimated
Sun 08:10:00 AM 61.2910 -9.0504 267° West  Level Estimated
Sun 08:11:00 AM 61.2849 -9.2984 267° West  Level Estimated
Sun 08:12:00 AM 61.2783 -9.5464 267° West  Level Estimated
Sun 08:13:00 AM 61.2713 -9.7943 267° West  Level Estimated
Sun 08:14:00 AM 61.2638 -10.0421 267° West  Level Estimated
Sun 08:15:00 AM 61.2559 -10.2897 266° West  Level Estimated
Sun 08:16:00 AM 61.2475 -10.5372 266° West  Level Estimated
Sun 08:17:00 AM 61.2387 -10.7846 266° West  Level Estimated
Sun 08:18:00 AM 61.2294 -11.0318 266° West  Level Estimated
Sun 08:19:00 AM 61.2196 -11.2789 265° West  Level Estimated
Sun 08:20:00 AM 61.2095 -11.5258 265° West  Level Estimated
Sun 08:21:00 AM 61.1988 -11.7726 265° West  Level Estimated
Sun 08:22:00 AM 61.1878 -12.0192 265° West  Level Estimated
Sun 08:23:00 AM 61.1762 -12.2656 265° West  Level Estimated
Sun 08:24:00 AM 61.1643 -12.5118 264° West  Level Estimated
Sun 08:25:00 AM 61.1518 -12.7579 264° West  Level Estimated
Sun 08:26:00 AM 61.1390 -13.0037 264° West  Level Estimated
Sun 08:27:00 AM 61.1257 -13.2494 264° West  Level Estimated
Sun 08:28:00 AM 61.1119 -13.4948 263° West  Level Estimated
Sun 08:29:00 AM 61.0977 -13.7400 263° West  Level Estimated
Sun 08:30:00 AM 61.0831 -13.9850 263° West  Level Estimated
Sun 08:31:00 AM 61.0680 -14.2298 263° West  Level Estimated
Sun 08:32:00 AM 61.0524 -14.4743 263° West  Level Estimated
Sun 08:33:00 AM 61.0365 -14.7186 262° West  Level Estimated
Sun 08:34:00 AM 61.0201 -14.9626 262° West  Level Estimated
Sun 08:35:00 AM 61.0032 -15.2064 262° West  Level Estimated
Sun 08:36:00 AM 60.9859 -15.4499 262° West  Level Estimated
Sun 08:37:00 AM 60.9682 -15.6931 262° West  Level Estimated
Sun 08:38:00 AM 60.9500 -15.9361 261° West  Level Estimated
Sun 08:39:00 AM 60.9314 -16.1788 261° West  Level Estimated
Sun 08:40:00 AM 60.9124 -16.4212 261° West  Level Estimated
Sun 08:41:00 AM 60.8929 -16.6633 261° West  Level Estimated
Sun 08:42:00 AM 60.8730 -16.9051 261° West  Level Estimated
Sun 08:43:00 AM 60.8527 -17.1467 260° West  Level Estimated
Sun 08:44:00 AM 60.8319 -17.3878 260° West  Level Estimated
Sun 08:45:00 AM 60.8107 -17.6287 260° West  Level Estimated
Sun 08:46:00 AM 60.7891 -17.8693 260° West  Level Estimated
Sun 08:47:00 AM 60.7670 -18.1095 259° West  Level Estimated
Sun 08:48:00 AM 60.7445 -18.3494 259° West  Level Estimated
Sun 08:49:00 AM 60.7216 -18.5890 259° West  Level Estimated
Sun 08:50:00 AM 60.6982 -18.8282 259° West  Level Estimated
Sun 08:51:00 AM 60.6744 -19.0671 259° West  Level Estimated
Sun 08:52:00 AM 60.6502 -19.3056 258° West  Level Estimated
Sun 08:53:00 AM 60.6256 -19.5437 258° West  Level Estimated
Sun 08:54:00 AM 60.6006 -19.7815 258° West  Level Estimated
Sun 08:55:00 AM 60.5751 -20.0189 258° West  Level Estimated
Sun 08:56:00 AM 60.5492 -20.2559 258° West  Level Estimated
Sun 08:57:00 AM 60.5229 -20.4926 257° West  Level Estimated
Sun 08:58:00 AM 60.4962 -20.7288 257° West  Level Estimated
Sun 08:59:00 AM 60.4690 -20.9647 257° West  Level Estimated
Sun 09:00:00 AM 60.4415 -21.2002 257° West  Level Estimated
Sun 09:01:00 AM 60.4135 -21.4352 257° West  Level Estimated
Sun 09:02:00 AM 60.3851 -21.6699 256° West  Level Estimated
Sun 09:03:00 AM 60.3563 -21.9042 256° West  Level Estimated
Sun 09:04:00 AM 60.3271 -22.1380 256° West  Level Estimated
Sun 09:05:00 AM 60.2975 -22.3714 256° West  Level Estimated
Sun 09:06:00 AM 60.2674 -22.6044 256° West  Level Estimated
Sun 09:07:00 AM 60.2370 -22.8370 255° West  Level Estimated
Sun 09:08:00 AM 60.2062 -23.0691 255° West  Level Estimated
Sun 09:09:00 AM 60.1749 -23.3008 255° West  Level Estimated
Sun 09:10:00 AM 60.1433 -23.5320 255° West  Level Estimated
Sun 09:11:00 AM 60.1112 -23.7628 255° West  Level Estimated
Sun 09:12:00 AM 60.0788 -23.9932 254° West  Level Estimated
Sun 09:13:00 AM 60.0459 -24.2231 254° West  Level Estimated
Sun 09:14:00 AM 60.0127 -24.4525 254° West  Level Estimated
Sun 09:15:00 AM 59.9790 -24.6815 254° West  Level Estimated
Sun 09:16:00 AM 59.9450 -24.9100 254° West  Level Estimated
Sun 09:17:00 AM 59.9106 -25.1380 253° West  Level Estimated
Sun 09:18:00 AM 59.8757 -25.3655 253° West  Level Estimated
Sun 09:19:00 AM 59.8405 -25.5926 253° West  Level Estimated
Sun 09:20:00 AM 59.8049 -25.8192 253° West  Level Estimated
Sun 09:21:00 AM 59.7689 -26.0453 253° West  Level Estimated
Sun 09:22:00 AM 59.7325 -26.2709 252° West  Level Estimated
Sun 09:23:00 AM 59.6957 -26.4960 252° West  Level Estimated
Sun 09:24:00 AM 59.6586 -26.7206 252° West  Level Estimated
Sun 09:25:00 AM 59.6210 -26.9448 252° West  Level Estimated
Sun 09:26:00 AM 59.5831 -27.1684 252° West  Level Estimated
Sun 09:27:00 AM 59.5448 -27.3915 251° West  Level Estimated
Sun 09:28:00 AM 59.5061 -27.6141 251° West  Level Estimated
Sun 09:29:00 AM 59.4671 -27.8362 251° West  Level Estimated
Sun 09:30:00 AM 59.4277 -28.0578 251° West  Level Estimated
Sun 09:31:00 AM 59.3878 -28.2789 251° West  Level Estimated
Sun 09:32:00 AM 59.3477 -28.4994 250° West  Level Estimated
Sun 09:33:00 AM 59.3071 -28.7194 250° West  Level Estimated
Sun 09:34:00 AM 59.2662 -28.9389 250° West  Level Estimated
Sun 09:35:00 AM 59.2249 -29.1579 250° West  Level Estimated
Sun 09:36:00 AM 59.1832 -29.3763 250° West  Level Estimated
Sun 09:37:00 AM 59.1412 -29.5942 249° West  Level Estimated
Sun 09:38:00 AM 59.0988 -29.8115 249° West  Level Estimated
Sun 09:39:00 AM 59.0561 -30.0284 249° West  Level Estimated
Sun 09:40:00 AM 59.0130 -30.2446 249° West  Level Estimated
Sun 09:41:00 AM 58.9695 -30.4604 249° West  Level Estimated
Sun 09:42:00 AM 58.9257 -30.6756 249° West  Level Estimated
Sun 09:43:00 AM 58.8815 -30.8902 248° West  Level Estimated
Sun 09:44:00 AM 58.8369 -31.1043 248° West  Level Estimated
Sun 09:45:00 AM 58.7921 -31.3178 248° West  Level Estimated
Sun 09:46:00 AM 58.7468 -31.5308 248° West  Level Estimated
Sun 09:47:00 AM 58.7012 -31.7432 248° West  Level Estimated
Sun 09:48:00 AM 58.6553 -31.9551 247° West  Level Estimated
Sun 09:49:00 AM 58.6090 -32.1664 247° West  Level Estimated
Sun 09:50:00 AM 58.5624 -32.3772 247° West  Level Estimated
Sun 09:51:00 AM 58.5154 -32.5874 247° West  Level Estimated
Sun 09:52:00 AM 58.4681 -32.7970 247° West  Level Estimated
Sun 09:53:00 AM 58.4204 -33.0061 247° West  Level Estimated
Sun 09:54:00 AM 58.3724 -33.2146 246° West  Level Estimated
Sun 09:55:00 AM 58.3241 -33.4225 246° West  Level Estimated
Sun 09:56:00 AM 58.2754 -33.6298 246° West  Level Estimated
Sun 09:57:00 AM 58.2264 -33.8366 246° West  Level Estimated
Sun 09:58:00 AM 58.1770 -34.0428 246° West  Level Estimated
Sun 09:59:00 AM 58.1273 -34.2485 245° Southwest  Level Estimated
Sun 10:00:00 AM 58.0773 -34.4535 245° Southwest  Level Estimated
Sun 10:01:00 AM 58.0270 -34.6580 245° Southwest  Level Estimated
Sun 10:02:00 AM 57.9763 -34.8619 245° Southwest  Level Estimated
Sun 10:03:00 AM 57.9254 -35.0652 245° Southwest  Level Estimated
Sun 10:04:00 AM 57.8741 -35.2680 245° Southwest  Level Estimated
Sun 10:05:00 AM 57.8224 -35.4702 244° Southwest  Level Estimated
Sun 10:06:00 AM 57.7705 -35.6718 244° Southwest  Level Estimated
Sun 10:07:00 AM 57.7182 -35.8728 244° Southwest  Level Estimated
Sun 10:08:00 AM 57.6656 -36.0732 244° Southwest  Level Estimated
Sun 10:09:00 AM 57.6127 -36.2731 244° Southwest  Level Estimated
Sun 10:10:00 AM 57.5595 -36.4723 244° Southwest  Level Estimated
Sun 10:11:00 AM 57.5060 -36.6710 243° Southwest  Level Estimated
Sun 10:12:00 AM 57.4521 -36.8691 243° Southwest  Level Estimated
Sun 10:13:00 AM 57.3980 -37.0666 243° Southwest  Level Estimated
Sun 10:14:00 AM 57.3435 -37.2636 243° Southwest  Level Estimated
Sun 10:15:00 AM 57.2887 -37.4599 243° Southwest  Level Estimated
Sun 10:16:00 AM 57.2337 -37.6557 243° Southwest  Level Estimated
Sun 10:17:00 AM 57.1783 -37.8508 242° Southwest  Level Estimated
Sun 10:18:00 AM 57.1226 -38.0454 242° Southwest  Level Estimated
Sun 10:19:00 AM 57.0666 -38.2394 242° Southwest  Level Estimated
Sun 10:20:00 AM 57.0103 -38.4329 242° Southwest  Level Estimated
Sun 10:21:00 AM 56.9538 -38.6257 242° Southwest  Level Estimated
Sun 10:22:00 AM 56.8969 -38.8180 242° Southwest  Level Estimated
Sun 10:23:00 AM 56.8397 -39.0096 241° Southwest  Level Estimated
Sun 10:24:00 AM 56.7823 -39.2007 241° Southwest  Level Estimated
Sun 10:25:00 AM 56.7245 -39.3912 241° Southwest  Level Estimated
Sun 10:26:00 AM 56.6665 -39.5811 241° Southwest  Level Estimated
Sun 10:27:00 AM 56.6081 -39.7704 241° Southwest  Level Estimated
Sun 10:28:00 AM 56.5495 -39.9591 241° Southwest  Level Estimated
Sun 10:29:00 AM 56.4906 -40.1473 241° Southwest  Level Estimated
Sun 10:30:00 AM 56.4314 -40.3348 240° Southwest  Level Estimated
Sun 10:31:00 AM 56.3720 -40.5218 240° Southwest  Level Estimated
Sun 10:32:00 AM 56.3122 -40.7082 240° Southwest  Level Estimated
Sun 10:33:00 AM 56.2522 -40.8940 240° Southwest  Level Estimated
Sun 10:34:00 AM 56.1919 -41.0793 240° Southwest  Level Estimated
Sun 10:35:00 AM 56.1314 -41.2639 240° Southwest  Level Estimated
Sun 10:36:00 AM 56.0705 -41.4480 239° Southwest  Level Estimated
Sun 10:37:00 AM 56.0094 -41.6314 239° Southwest  Level Estimated
Sun 10:38:00 AM 55.9480 -41.8143 239° Southwest  Level Estimated
Sun 10:39:00 AM 55.8863 -41.9967 239° Southwest  Level Estimated
Sun 10:40:00 AM 55.8244 -42.1784 239° Southwest  Level Estimated
Sun 10:41:00 AM 55.7622 -42.3596 239° Southwest  Level Estimated
Sun 10:42:00 AM 55.6997 -42.5401 239° Southwest  Level Estimated
Sun 10:43:00 AM 55.6370 -42.7201 238° Southwest  Level Estimated
Sun 10:44:00 AM 55.5740 -42.8996 238° Southwest  Level Estimated
Sun 10:45:00 AM 55.5107 -43.0784 238° Southwest  Level Estimated
Sun 10:46:00 AM 55.4472 -43.2567 238° Southwest  Level Estimated
Sun 10:47:00 AM 55.3834 -43.4344 238° Southwest  Level Estimated
Sun 10:48:00 AM 55.3194 -43.6115 238° Southwest  Level Estimated
Sun 10:49:00 AM 55.2551 -43.7881 237° Southwest  Level Estimated
Sun 10:50:00 AM 55.1906 -43.9641 237° Southwest  Level Estimated
Sun 10:51:00 AM 55.1258 -44.1395 237° Southwest  Level Estimated
Sun 10:52:00 AM 55.0607 -44.3144 237° Southwest  Level Estimated
Sun 10:53:00 AM 54.9955 -44.4886 237° Southwest  Level Estimated
Sun 10:54:00 AM 54.9299 -44.6623 237° Southwest  Level Estimated
Sun 10:55:00 AM 54.8641 -44.8355 237° Southwest  Level Estimated
Sun 10:56:00 AM 54.7981 -45.0081 236° Southwest  Level Estimated
Sun 10:57:00 AM 54.7318 -45.1801 236° Southwest  Level Estimated
Sun 10:58:00 AM 54.6653 -45.3516 236° Southwest  Level Estimated
Sun 10:59:00 AM 54.5985 -45.5224 236° Southwest  Level Estimated
Sun 10:59:30 AM 63.1667 -54.8167 235° Southwest 220 253 36,000  Level Gander Center
Sun 11:00:00 AM 54.5315 -45.6928 236° Southwest  Level Estimated
Sun 11:00:30 AM 63.1333 -55.0500 253° West 370 426 36,000  Level Gander Center
Sun 11:01:00 AM 54.4643 -45.8625 236° Southwest  Level Estimated
Sun 11:01:30 AM 63.0833 -55.2833 245° Southwest 430 495 36,000  Level Gander Center
Sun 11:02:00 AM 54.3947 -46.0371 236° Southwest  Level Estimated
Sun 11:02:30 AM 63.0167 -55.5167 238° Southwest 430 495 36,000  Level Gander Center
Sun 11:03:00 AM 54.3248 -46.2111 235° Southwest  Level Estimated
Sun 11:03:30 AM 62.9833 -55.7333 251° West 410 472 36,000  Level Gander Center
Sun 11:04:00 AM 54.2547 -46.3845 235° Southwest  Level Estimated
Sun 11:04:30 AM 62.9167 -55.9333 234° Southwest 410 472 36,000  Level Gander Center
Sun 11:05:30 AM 62.8667 -56.1667 245° Southwest 410 472 36,000  Level Gander Center
Sun 11:06:30 AM 62.8000 -56.3500 232° Southwest 410 472 36,000  Level Gander Center
Sun 11:07:30 AM 62.7500 -56.5833 245° Southwest 410 472 36,000  Level Gander Center
Sun 11:08:30 AM 62.6833 -56.7667 232° Southwest 410 472 36,000  Level Gander Center
Sun 11:09:30 AM 62.6333 -57.0000 245° Southwest 410 472 36,000  Level Gander Center
Sun 11:10:30 AM 62.5500 -57.1833 225° Southwest 410 472 36,000  Level Gander Center
Sun 11:11:30 AM 62.4833 -57.4000 236° Southwest 410 472 36,000  Level Gander Center
Sun 11:12:27 AM 62.4167 -57.5500 226° Southwest 410 472 36,000  Level Montreal Center
Sun 11:13:27 AM 62.3500 -57.7333 232° Southwest 400 460 36,000  Level Montreal Center
Sun 11:15:27 AM 62.2667 -58.0833 243° Southwest 400 460 36,000  Level Montreal Center
Sun 11:16:27 AM 62.1833 -58.2833 228° Southwest 410 472 36,000  Level Montreal Center
Sun 11:17:27 AM 62.1167 -58.4667 232° Southwest 400 460 36,000  Level Montreal Center
Sun 11:18:27 AM 62.0667 -58.6833 244° Southwest 400 460 36,000  Level Montreal Center
Sun 11:19:27 AM 62.0000 -58.8667 232° Southwest 390 449 36,000  Level Montreal Center
Sun 11:20:27 AM 61.9333 -59.0500 232° Southwest 400 460 36,000  Level Montreal Center
Sun 11:21:27 AM 61.8667 -59.2333 232° Southwest 400 460 36,000  Level Montreal Center
Sun 11:22:27 AM 61.8167 -59.4500 244° Southwest 400 460 36,000  Level Montreal Center
Sun 11:23:27 AM 61.7333 -59.6333 226° Southwest 400 460 36,000  Level Montreal Center
Sun 11:24:27 AM 61.6833 -59.8000 238° Southwest 400 460 36,000  Level Montreal Center
Sun 11:25:27 AM 61.6167 -59.9833 233° Southwest 390 449 36,000  Level Montreal Center
Sun 11:26:27 AM 61.5500 -60.1833 235° Southwest 390 449 36,000  Level Montreal Center
Sun 11:27:27 AM 61.4833 -60.3667 233° Southwest 390 449 36,000  Level Montreal Center
Sun 11:28:27 AM 61.4167 -60.5500 233° Southwest 390 449 36,000  Level Montreal Center
Sun 11:30:27 AM 61.2833 -60.8833 230° Southwest 390 449 36,000  Level Montreal Center
Sun 11:31:27 AM 61.2167 -61.1000 237° Southwest 390 449 36,000  Level Montreal Center
Sun 11:32:27 AM 61.1500 -61.2667 230° Southwest 390 449 36,000  Level Montreal Center
Sun 11:33:27 AM 61.0833 -61.4500 233° Southwest 390 449 36,000  Level Montreal Center
Sun 11:34:27 AM 61.0167 -61.6167 231° Southwest 390 449 36,000  Level Montreal Center
Sun 11:35:27 AM 60.9667 -61.8167 243° Southwest 390 449 36,000  Level Montreal Center
Sun 11:36:27 AM 60.8833 -62.0333 232° Southwest 390 449 36,000  Level Montreal Center
Sun 11:37:27 AM 60.8167 -62.1500 220° Southwest 380 437 36,000  Level Montreal Center
Sun 11:38:27 AM 60.7500 -62.3667 238° Southwest 390 449 36,000  Level Montreal Center
Sun 11:39:27 AM 60.6667 -62.5333 224° Southwest 390 449 36,000  Level Montreal Center
Sun 11:40:27 AM 60.6167 -62.7000 239° Southwest 390 449 36,000  Level Montreal Center
Sun 11:41:27 AM 60.5500 -62.8667 231° Southwest 390 449 36,000  Level Montreal Center
Sun 11:42:27 AM 60.4833 -63.0667 236° Southwest 390 449 36,000  Level Montreal Center
Sun 11:43:27 AM 60.4167 -63.2167 228° Southwest 390 449 36,000  Level Montreal Center
Sun 11:44:27 AM 60.3500 -63.3833 231° Southwest 390 449 36,000  Level Montreal Center
Sun 11:45:27 AM 60.2833 -63.5500 231° Southwest 390 449 36,000  Level Montreal Center
Sun 11:46:27 AM 60.2167 -63.7500 236° Southwest 380 437 36,000  Level Montreal Center
Sun 11:47:27 AM 60.1333 -63.9167 225° Southwest 380 437 36,000  Level Montreal Center
Sun 11:48:27 AM 60.0667 -64.0667 228° Southwest 380 437 36,000  Level Montreal Center
Sun 11:49:27 AM 60.0000 -64.2333 231° Southwest 380 437 36,000  Level Montreal Center
Sun 11:50:27 AM 59.9333 -64.4000 231° Southwest 390 449 36,000  Level Montreal Center
Sun 11:51:27 AM 59.8667 -64.5500 229° Southwest 390 449 36,000  Level Montreal Center
Sun 11:52:27 AM 59.8000 -64.7000 229° Southwest 380 437 36,000  Level Montreal Center
Sun 11:53:27 AM 59.7333 -64.8667 232° Southwest 390 449 36,000  Level Montreal Center
Sun 11:54:27 AM 59.6500 -65.0167 222° Southwest 380 437 36,000  Level Montreal Center
Sun 11:55:27 AM 59.5833 -65.1500 225° Southwest 380 437 36,000  Level Montreal Center
Sun 11:56:27 AM 59.4833 -65.2667 211° Southwest 390 449 36,000  Level Montreal Center
Sun 11:57:27 AM 59.4000 -65.4000 219° Southwest 380 437 36,000  Level Montreal Center
Sun 11:58:27 AM 59.3167 -65.5667 226° Southwest 380 437 36,000  Level Montreal Center
Sun 11:59:27 AM 59.2333 -65.6500 207° Southwest 380 437 36,000  Level Montreal Center
Sun 12:00:27 PM 59.1333 -65.7833 214° Southwest 380 437 36,000  Level Montreal Center
Sun 12:01:27 PM 59.0500 -65.9000 216° Southwest 380 437 36,000  Level Montreal Center
Sun 12:02:27 PM 58.9667 -66.0167 216° Southwest 380 437 36,000  Level Montreal Center
Sun 12:03:27 PM 58.8833 -66.1500 220° Southwest 380 437 36,000  Level Montreal Center
Sun 12:04:27 PM 58.8000 -66.2667 216° Southwest 380 437 36,000  Level Montreal Center
Sun 12:05:27 PM 58.7167 -66.3833 216° Southwest 390 449 36,000  Level Montreal Center
Sun 12:06:27 PM 58.6167 -66.5167 215° Southwest 380 437 36,000  Level Montreal Center
Sun 12:07:27 PM 58.5500 -66.6333 222° Southwest 380 437 36,000  Level Montreal Center
Sun 12:08:27 PM 58.4500 -66.7500 211° Southwest 380 437 36,000  Level Montreal Center
Sun 12:09:27 PM 58.3667 -66.8667 216° Southwest 380 437 36,000  Level Montreal Center
Sun 12:10:27 PM 58.2833 -66.9833 216° Southwest 380 437 36,000  Level Montreal Center
Sun 12:11:27 PM 58.2000 -67.1000 216° Southwest 380 437 36,000  Level Montreal Center
Sun 12:12:27 PM 58.1000 -67.2333 215° Southwest 380 437 36,000  Level Montreal Center
Sun 12:13:27 PM 58.0167 -67.3500 217° Southwest 380 437 36,000  Level Montreal Center
Sun 12:14:27 PM 57.9167 -67.4667 212° Southwest 390 449 36,000  Level Montreal Center
Sun 12:15:27 PM 57.8333 -67.5833 217° Southwest 390 449 36,000  Level Montreal Center
Sun 12:16:27 PM 57.7500 -67.6833 213° Southwest 390 449 36,000  Level Montreal Center
Sun 12:17:27 PM 57.6667 -67.8000 217° Southwest 390 449 36,000  Level Montreal Center
Sun 12:18:27 PM 57.5667 -67.9167 212° Southwest 390 449 36,000  Level Montreal Center
Sun 12:19:27 PM 57.4833 -68.0333 217° Southwest 390 449 36,000  Level Montreal Center
Sun 12:20:27 PM 57.4000 -68.1833 224° Southwest 390 449 36,000  Level Montreal Center
Sun 12:21:27 PM 57.3000 -68.2833 208° Southwest 390 449 36,000  Level Montreal Center
Sun 12:22:27 PM 57.2167 -68.4000 217° Southwest 390 449 36,000  Level Montreal Center
Sun 12:23:27 PM 57.1333 -68.5167 217° Southwest 390 449 36,000  Level Montreal Center
Sun 12:24:27 PM 57.0333 -68.6167 209° Southwest 390 449 36,000  Level Montreal Center
Sun 12:25:27 PM 56.9333 -68.7333 212° Southwest 390 449 36,000  Level Montreal Center
Sun 12:26:27 PM 56.8667 -68.8500 224° Southwest 390 449 36,000  Level Montreal Center
Sun 12:27:27 PM 56.7500 -68.9500 205° Southwest 390 449 36,000  Level Montreal Center
Sun 12:28:27 PM 56.6667 -69.0667 218° Southwest 390 449 36,000  Level Montreal Center
Sun 12:29:27 PM 56.5667 -69.1667 209° Southwest 390 449 36,000  Level Montreal Center
Sun 12:30:27 PM 56.4833 -69.2833 218° Southwest 390 449 36,000  Level Montreal Center
Sun 12:31:27 PM 56.4000 -69.3833 214° Southwest 390 449 36,000  Level Montreal Center
Sun 12:32:27 PM 56.3000 -69.5000 213° Southwest 390 449 36,000  Level Montreal Center
Sun 12:33:27 PM 56.2000 -69.6000 209° Southwest 390 449 36,000  Level Montreal Center
Sun 12:34:27 PM 56.1167 -69.7333 222° Southwest 400 460 36,000  Level Montreal Center
Sun 12:35:27 PM 56.0333 -69.8333 214° Southwest 400 460 36,000  Level Montreal Center
Sun 12:36:27 PM 55.9333 -69.9500 213° Southwest 400 460 36,000  Level Montreal Center
Sun 12:37:27 PM 55.8333 -70.0500 209° Southwest 390 449 36,000  Level Montreal Center
Sun 12:38:27 PM 55.7500 -70.1500 214° Southwest 400 460 36,000  Level Montreal Center
Sun 12:39:27 PM 55.6500 -70.2667 213° Southwest 400 460 36,000  Level Montreal Center
Sun 12:40:27 PM 55.5667 -70.3667 214° Southwest 400 460 36,000  Level Montreal Center
Sun 12:41:27 PM 55.4500 -70.5000 213° Southwest 400 460 36,000  Level Montreal Center
Sun 12:42:27 PM 55.3667 -70.6000 214° Southwest 410 472 36,000  Level Montreal Center
Sun 12:43:27 PM 55.2667 -70.7000 210° Southwest 410 472 36,000  Level Montreal Center
Sun 12:44:27 PM 55.1667 -70.8000 210° Southwest 410 472 36,000  Level Montreal Center
Sun 12:45:27 PM 55.0833 -70.9000 214° Southwest 410 472 36,000  Level Montreal Center
Sun 12:46:27 PM 54.9667 -71.0000 206° Southwest 410 472 36,000  Level Montreal Center
Sun 12:47:27 PM 54.8833 -71.1000 215° Southwest 410 472 36,000  Level Montreal Center
Sun 12:48:27 PM 54.7833 -71.2333 218° Southwest 410 472 36,000  Level Montreal Center
Sun 12:49:27 PM 54.6833 -71.3333 210° Southwest 410 472 36,000  Level Montreal Center
Sun 12:50:27 PM 54.5833 -71.4333 210° Southwest 410 472 36,000  Level Montreal Center
Sun 12:51:27 PM 54.4833 -71.5333 210° Southwest 410 472 36,000  Level Montreal Center
Sun 12:52:27 PM 54.3833 -71.6167 206° Southwest 410 472 36,000  Level Montreal Center
Sun 12:53:27 PM 54.3000 -71.7500 223° Southwest 410 472 36,000  Level Montreal Center
Sun 12:54:27 PM 54.2000 -71.8500 210° Southwest 420 483 36,000  Level Montreal Center
Sun 12:55:27 PM 54.1000 -71.9500 210° Southwest 420 483 36,000  Level Montreal Center
Sun 12:56:27 PM 54.0000 -72.0667 214° Southwest 420 483 36,000  Level Montreal Center
Sun 12:57:27 PM 53.8833 -72.1667 207° Southwest 420 483 36,000  Level Montreal Center
Sun 12:58:27 PM 53.7833 -72.2500 206° Southwest 420 483 36,000  Level Montreal Center
Sun 12:59:27 PM 53.6833 -72.3500 211° Southwest 420 483 36,000  Level Montreal Center
Sun 01:00:27 PM 53.6000 -72.4667 220° Southwest 420 483 36,000  Level Montreal Center
Sun 01:01:27 PM 53.5000 -72.5667 211° Southwest 420 483 36,000  Level Montreal Center
Sun 01:02:27 PM 53.3833 -72.6667 207° Southwest 430 495 36,000  Level Montreal Center
Sun 01:03:27 PM 53.2833 -72.7833 215° Southwest 430 495 36,000  Level Montreal Center
Sun 01:04:27 PM 53.1833 -72.8667 207° Southwest 430 495 36,000  Level Montreal Center
Sun 01:05:27 PM 53.0833 -72.9667 211° Southwest 430 495 36,000  Level Montreal Center
Sun 01:06:27 PM 52.9667 -73.0833 211° Southwest 430 495 36,000  Level Montreal Center
Sun 01:07:27 PM 52.8667 -73.1667 207° Southwest 440 506 36,000  Level Montreal Center
Sun 01:08:27 PM 52.7500 -73.3000 215° Southwest 440 506 36,000  Level Montreal Center
Sun 01:09:27 PM 52.6333 -73.3833 203° Southwest 440 506 36,000  Level Montreal Center
Sun 01:10:27 PM 52.5333 -73.5000 215° Southwest 440 506 36,000  Level Montreal Center
Sun 01:11:27 PM 52.4333 -73.5833 207° Southwest 440 506 36,000  Level Montreal Center
Sun 01:12:27 PM 52.3167 -73.7000 211° Southwest 440 506 36,000  Level Montreal Center
Sun 01:13:27 PM 52.2167 -73.8000 212° Southwest 440 506 36,000  Level Montreal Center
Sun 01:14:27 PM 52.1167 -73.9167 216° Southwest 450 518 36,000  Level Montreal Center
Sun 01:15:27 PM 52.0000 -74.0000 204° Southwest 440 506 36,000  Level Montreal Center
Sun 01:16:27 PM 51.9000 -74.1167 216° Southwest 440 506 36,000  Level Montreal Center
Sun 01:17:27 PM 51.7833 -74.2000 204° Southwest 440 506 36,000  Level Montreal Center
Sun 01:18:27 PM 51.6833 -74.3167 216° Southwest 440 506 36,000  Level Montreal Center
Sun 01:19:27 PM 51.5833 -74.4000 207° Southwest 450 518 36,000  Level Montreal Center
Sun 01:20:27 PM 51.4667 -74.5000 208° Southwest 450 518 36,000  Level Montreal Center
Sun 01:21:27 PM 51.3500 -74.5833 204° Southwest 450 518 36,000  Level Montreal Center
Sun 01:22:27 PM 51.2500 -74.7000 216° Southwest 450 518 36,000  Level Montreal Center
Sun 01:23:27 PM 51.1333 -74.7833 204° Southwest 450 518 36,000  Level Montreal Center
Sun 01:24:27 PM 51.0167 -74.9000 212° Southwest 450 518 36,000  Level Montreal Center
Sun 01:25:27 PM 50.9167 -74.9833 208° Southwest 450 518 36,000  Level Montreal Center
Sun 01:26:27 PM 50.8167 -75.0833 212° Southwest 450 518 36,000  Level Montreal Center
Sun 01:27:27 PM 50.7000 -75.1667 204° Southwest 450 518 36,000  Level Montreal Center
Sun 01:28:27 PM 50.5833 -75.2833 212° Southwest 460 529 36,000  Level Montreal Center
Sun 01:29:27 PM 50.4667 -75.3833 209° Southwest 450 518 36,000  Level Montreal Center
Sun 01:30:27 PM 50.3667 -75.4833 213° Southwest 460 529 36,000  Level Montreal Center
Sun 01:31:27 PM 50.2500 -75.6000 213° Southwest 460 529 36,000  Level Montreal Center
Sun 01:32:27 PM 50.1500 -75.6833 208° Southwest 460 529 36,000  Level Montreal Center
Sun 01:33:27 PM 50.0333 -75.7833 209° Southwest 460 529 36,000  Level Montreal Center
Sun 01:34:27 PM 49.9000 -75.8833 206° Southwest 460 529 36,000  Level Montreal Center
Sun 01:35:27 PM 49.7833 -76.0000 213° Southwest 460 529 36,000  Level Montreal Center
Sun 01:36:27 PM 49.6833 -76.1000 213° Southwest 460 529 36,000  Level Montreal Center
Sun 01:37:27 PM 49.5667 -76.1667 200° South 460 529 36,000  Level Montreal Center
Sun 01:38:27 PM 49.4667 -76.2833 217° Southwest 460 529 36,000  Level Montreal Center
Sun 01:39:27 PM 49.3500 -76.3833 209° Southwest 460 529 36,000  Level Montreal Center
Sun 01:40:27 PM 49.2333 -76.4833 209° Southwest 460 529 36,000  Level Montreal Center
Sun 01:41:27 PM 49.1333 -76.5500 204° Southwest 460 529 36,000  Level Montreal Center
Sun 01:42:27 PM 49.0167 -76.6500 209° Southwest 470 541 36,000  Level Montreal Center
Sun 01:43:27 PM 48.9000 -76.7667 213° Southwest 460 529 36,000  Level Montreal Center
Sun 01:44:27 PM 48.7833 -76.8667 209° Southwest 460 529 36,000  Level Montreal Center
Sun 01:45:27 PM 48.6833 -76.9667 213° Southwest 470 541 36,000  Level Montreal Center
Sun 01:46:27 PM 48.5500 -77.0500 202° Southwest 460 529 36,000  Level Montreal Center
Sun 01:47:27 PM 48.4333 -77.1500 210° Southwest 460 529 36,000  Level Montreal Center
Sun 01:48:27 PM 48.3333 -77.2333 209° Southwest 460 529 36,000  Level Montreal Center
Sun 01:49:27 PM 48.2167 -77.3333 210° Southwest 470 541 36,000  Level Montreal Center
Sun 01:50:27 PM 48.1000 -77.4333 210° Southwest 460 529 36,000  Level Montreal Center
Sun 01:51:27 PM 47.9833 -77.5167 206° Southwest 460 529 36,000  Level Montreal Center
Sun 01:52:27 PM 47.8667 -77.6167 210° Southwest 460 529 36,000  Level Montreal Center
Sun 01:53:27 PM 47.7667 -77.7167 214° Southwest 460 529 36,000  Level Montreal Center
Sun 01:54:27 PM 47.6333 -77.8167 207° Southwest 470 541 36,000  Level Montreal Center
Sun 01:55:27 PM 47.5167 -77.8833 201° Southwest 470 541 36,000  Level Montreal Center
Sun 01:56:27 PM 47.4167 -77.9833 214° Southwest 470 541 36,000  Level Montreal Center
Sun 01:57:27 PM 47.3000 -78.0667 206° Southwest 470 541 36,000  Level Montreal Center
Sun 01:58:27 PM 47.1833 -78.1667 210° Southwest 470 541 36,000  Level Montreal Center
Sun 01:59:27 PM 47.0667 -78.2667 210° Southwest 470 541 36,000  Level Montreal Center
Sun 02:00:27 PM 46.9667 -78.3500 210° Southwest 470 541 36,000  Level Montreal Center
Sun 02:01:27 PM 46.8333 -78.4167 199° South 470 541 36,000  Level Montreal Center
Sun 02:02:27 PM 46.7167 -78.5167 210° Southwest 470 541 36,000  Level Montreal Center
Sun 02:03:27 PM 46.6167 -78.6000 210° Southwest 470 541 36,000  Level Montreal Center
Sun 02:04:27 PM 46.4833 -78.7000 207° Southwest 470 541 36,000  Level Montreal Center
Sun 02:05:27 PM 46.3833 -78.7833 210° Southwest 470 541 36,000  Level Montreal Center
Sun 02:06:27 PM 46.2667 -78.8833 211° Southwest 470 541 36,000  Level Montreal Center
Sun 02:07:27 PM 46.1333 -78.9667 203° Southwest 470 541 36,000  Level Montreal Center
Sun 02:13:18 PM 45.5098 -79.4293 203° Southwest 473 544 36,000  Level FlightAware ADS-B
Sun 02:13:53 PM 45.4624 -79.4639 207° Southwest 474 545 36,000  Level FlightAware ADS-B (EIWF / WAT)
Sun 02:15:32 PM 45.2145 -79.6436 207° Southwest 471 542 36,000  Level FlightAware ADS-B
Sun 02:16:16 PM 45.1494 -79.6905 207° Southwest 472 543 36,000  Level FlightAware ADS-B
Sun 02:17:07 PM 45.0788 -79.7412 207° Southwest 474 545 36,000  Level FlightAware ADS-B (EIWF / WAT)
Sun 02:17:37 PM 45.0078 -79.7921 207° Southwest 474 545 36,000  Level FlightAware ADS-B (EIWF / WAT)
Sun 02:18:14 PM 44.9239 -79.8519 207° Southwest 468 539 36,000  Level FlightAware ADS-B
Sun 02:18:53 PM 44.8253 -79.9221 207° Southwest 477 549 36,000  Level FlightAware ADS-B (CYKF)
Sun 02:19:36 PM 44.8215 -79.9247 207° Southwest 470 541 36,000  Level FlightAware ADS-B (EIWF / WAT)
Sun 02:20:06 PM 44.7186 -79.9977 207° Southwest 470 541 36,000  Level FlightAware ADS-B (EIWF / WAT)
Sun 02:21:07 PM 44.5583 -80.1107 207° Southwest 475 547 36,000  Level FlightAware ADS-B (EPLB / LUZ)
Sun 02:21:47 PM 44.4704 -80.1725 207° Southwest 475 547 36,000  Level FlightAware ADS-B (EPLB / LUZ)
Sun 02:22:21 PM 44.4772 -80.1677 27° Northeast 467 537 36,000  Level FlightAware ADS-B (EIWF / WAT)
Sun 02:23:03 PM 44.3216 -80.2765 207° Southwest 474 545 36,000  Level FlightAware ADS-B (CYYZ)
Sun 02:23:35 PM 44.2579 -80.3207 206° Southwest 471 542 36,000  Level FlightAware ADS-B (CYKF)
Sun 02:24:06 PM 44.1961 -80.3634 206° Southwest 470 541 36,000  Level FlightAware ADS-B (CYYZ)
Sun 02:24:15 PM 44.1783 -80.3757 206° Southwest 469 540 36,000  Level FlightAware ADS-B (CYKF)
Sun 02:24:35 PM 44.1416 -80.4012 206° Southwest 468 539 36,000  Level FlightAware ADS-B (CYYZ)
Sun 02:24:56 PM 44.1008 -80.4293 206° Southwest 466 536 36,000  Level FlightAware ADS-B (CYKF)
Sun 02:25:06 PM 44.1288 -80.4100 26° Northeast 466 536 36,000  Level FlightAware ADS-B (CYYZ)
Sun 02:25:31 PM 44.0523 -80.4628 206° Southwest 466 536 36,000  Level FlightAware ADS-B (CYKF)
Sun 02:26:02 PM 43.9765 -80.5150 206° Southwest 468 539 36,000  Level FlightAware ADS-B
Sun 02:26:28 PM 43.9248 -80.5505 206° Southwest 469 540 36,000  Level FlightAware ADS-B
Sun 02:27:05 PM 43.8626 -80.5932 206° Southwest 471 542 36,000  Level FlightAware ADS-B (CYYZ)
Sun 02:27:08 PM 43.8453 -80.6051 206° Southwest 470 541 36,000  Level FlightAware ADS-B (EPLB / LUZ)
Sun 02:27:42 PM 43.7783 -80.6508 206° Southwest 472 543 36,000  Level FlightAware ADS-B (EPLB / LUZ)
Sun 02:28:11 PM 43.7215 -80.6895 206° Southwest 474 545 36,000  Level FlightAware ADS-B (CYYZ)
Sun 02:28:16 PM 43.7258 -80.6867 26° Northeast 473 544 36,000  Level FlightAware ADS-B (CYKF)
Sun 02:28:46 PM 43.6530 -80.7361 206° Southwest 474 545 36,000  Level FlightAware ADS-B (CYKF)
Sun 02:28:58 PM 43.6316 -80.7506 206° Southwest 475 547 36,000  Level FlightAware ADS-B (CYYZ)
Sun 02:29:21 PM 43.5858 -80.7817 206° Southwest 475 547 36,000  Level FlightAware ADS-B (EPLB / LUZ)
Sun 02:29:58 PM 43.5574 -80.8010 206° Southwest 476 548 36,000  Level FlightAware ADS-B
Sun 02:30:09 PM 43.4884 -80.8476 206° Southwest 477 549 36,000  Level FlightAware ADS-B (CYYZ)
Sun 02:30:29 PM 43.5338 -80.8170 26° Northeast 477 549 36,000  Level FlightAware ADS-B (EPLB / LUZ)
Sun 02:30:34 PM 43.4665 -80.8624 206° Southwest 478 550 36,000  Level FlightAware ADS-B (CYYZ)
Sun 02:31:12 PM 43.3660 -80.9300 206° Southwest 478 550 36,000  Level FlightAware ADS-B (EPLB / LUZ)
Sun 02:31:22 PM 43.3507 -80.9403 206° Southwest 479 551 36,000  Level FlightAware ADS-B (CYYZ)
Sun 02:31:51 PM 43.2952 -80.9775 206° Southwest 479 551 36,000  Level FlightAware ADS-B (EPLB / LUZ)
Sun 02:32:24 PM 43.2225 -81.0261 206° Southwest 479 551 36,000  Level FlightAware ADS-B (EPLB / LUZ)
Sun 02:32:55 PM 43.1622 -81.0663 206° Southwest 480 552 36,000  Level FlightAware ADS-B (CYKF)
Sun 02:32:56 PM 43.1587 -81.0686 206° Southwest 481 554 36,000  Level FlightAware ADS-B (CYYZ)
Sun 02:33:26 PM 43.0978 -81.1092 206° Southwest 481 554 36,000  Level FlightAware ADS-B (CYYZ)
Sun 02:33:36 PM 43.0790 -81.1217 206° Southwest 481 554 36,000  Level FlightAware ADS-B (EPLB / LUZ)
Sun 02:33:56 PM 43.0376 -81.1492 206° Southwest 483 556 36,000  Level FlightAware ADS-B (CYYZ)
Sun 02:34:14 PM 43.0019 -81.1726 206° Southwest 485 558 36,000  Level FlightAware ADS-B (CYKF)
Sun 02:34:26 PM 42.9758 -81.1888 204° Southwest 487 560 36,000  Level FlightAware ADS-B (CYYZ)
Sun 02:34:51 PM 42.9267 -81.2186 204° Southwest 487 560 36,000  Level FlightAware ADS-B (EPLB / LUZ)
Sun 02:34:56 PM 42.9750 -81.1893 24° Northeast 488 562 36,000  Level FlightAware ADS-B (CYYZ)
Sun 02:35:31 PM 42.8452 -81.2684 204° Southwest 488 562 36,000  Level FlightAware ADS-B (EPLB / LUZ)
Sun 02:36:03 PM 42.7792 -81.3089 204° Southwest 488 562 36,000  Level FlightAware ADS-B (EPLB / LUZ)
Sun 02:36:33 PM 42.7150 -81.3484 204° Southwest 488 562 36,000  Level FlightAware ADS-B (CYKF)
Sun 02:37:03 PM 42.6541 -81.3857 204° Southwest 487 560 36,000  Level FlightAware ADS-B (EPLB / LUZ)
Sun 02:37:39 PM 42.5814 -81.4300 204° Southwest 485 558 36,000  Level FlightAware ADS-B (EPLB / LUZ)
Sun 02:38:16 PM 42.5075 -81.4750 204° Southwest 478 550 36,000  Level FlightAware ADS-B (CYKF)
Sun 02:38:48 PM 42.4683 -81.4990 204° Southwest 475 547 36,000  Level FlightAware ADS-B (CYKF)
Sun 02:40:06 PM 42.2866 -81.6092 204° Southwest 475 547 36,000  Level FlightAware ADS-B (EPLB / LUZ)
Sun 02:41:46 PM 42.0919 -81.7269 204° Southwest 473 544 36,000  Level Cleveland Center
Sun 02:42:48 PM 41.9700 -81.7992 204° Southwest 475 547 36,000  Level Cleveland Center
Sun 02:43:49 PM 41.8486 -81.8719 204° Southwest 475 547 36,000  Level Cleveland Center
Sun 02:44:51 PM 41.7258 -81.9450 204° Southwest 479 551 36,000  Level Cleveland Center
Sun 02:45:52 PM 41.6036 -82.0164 204° Southwest 478 550 36,000  Level Cleveland Center
Sun 02:46:54 PM 41.4822 -82.0894 204° Southwest 477 549 36,000  Level Cleveland Center
Sun 02:47:56 PM 41.3600 -82.1592 203° Southwest 478 550 36,000  Level Cleveland Center
Sun 02:48:57 PM 41.2067 -82.2156 195° South 489 563 36,000  Level Cleveland Center
Sun 02:49:59 PM 41.0750 -82.2642 196° South 489 563 36,000  Level Cleveland Center
Sun 02:51:01 PM 40.9411 -82.3108 195° South 493 567 36,000  Level Cleveland Center
Sun 02:52:02 PM 40.8097 -82.3581 195° South 489 563 36,000  Level Cleveland Center
Sun 02:53:04 PM 40.6772 -82.4053 195° South 489 563 36,000  Level Cleveland Center
Sun 02:57:50 PM 40.0255 -82.5949 195° South 508 585 36,000  Level FlightAware ADS-B
Sun 02:59:07 PM 39.8440 -82.6093 183° South 506 582 36,000  Level FlightAware ADS-B
Sun 02:59:43 PM 39.7563 -82.6152 183° South 506 582 36,000  Level FlightAware ADS-B
Sun 03:00:15 PM 39.6865 -82.6199 183° South 506 582 36,000  Level FlightAware ADS-B
Sun 03:00:46 PM 39.6081 -82.6252 183° South 507 583 36,000  Level FlightAware ADS-B
Sun 03:01:28 PM 39.5094 -82.6319 183° South 510 587 36,000  Level FlightAware ADS-B
Sun 03:02:09 PM 39.4132 -82.6382 183° South 512 589 36,000  Level FlightAware ADS-B
Sun 03:02:46 PM 39.3284 -82.6440 183° South 513 590 36,000  Level FlightAware ADS-B
Sun 03:03:16 PM 39.2536 -82.6489 183° South 514 592 36,000  Level FlightAware ADS-B
Sun 03:03:57 PM 39.1552 -82.6555 183° South 515 593 36,000  Level FlightAware ADS-B
Sun 03:04:29 PM 39.0817 -82.6604 183° South 516 594 36,000  Level FlightAware ADS-B
Sun 03:05:08 PM 38.9889 -82.6665 183° South 518 596 36,000  Level FlightAware ADS-B
Sun 03:05:52 PM 38.8861 -82.6733 183° South 520 598 36,000  Level FlightAware ADS-B
Sun 03:06:23 PM 38.8144 -82.6780 183° South 520 598 36,000  Level FlightAware ADS-B
Sun 03:06:53 PM 38.7392 -82.6829 183° South 519 597 36,000  Level FlightAware ADS-B
Sun 03:07:24 PM 38.6620 -82.6880 183° South 518 596 36,000  Level FlightAware ADS-B
Sun 03:08:44 PM 38.4811 -82.6997 183° South 515 593 36,000  Level Indianapolis Center
Sun 03:09:45 PM 38.3378 -82.7103 183° South 515 593 36,000  Level Indianapolis Center
Sun 03:10:47 PM 38.1939 -82.7194 183° South 515 593 36,000  Level Indianapolis Center
Sun 03:11:49 PM 38.0508 -82.7297 183° South 515 593 36,000  Level Indianapolis Center
Sun 03:12:50 PM 37.9064 -82.7392 183° South 515 593 36,000  Level Indianapolis Center
Sun 03:13:52 PM 37.7617 -82.7489 183° South 516 594 36,000  Level Indianapolis Center
Sun 03:14:54 PM 37.6064 -82.8011 195° South 495 570 36,000  Level Indianapolis Center
Sun 03:15:56 PM 37.4883 -82.8758 207° Southwest 479 551 36,000  Level Indianapolis Center
Sun 03:16:57 PM 37.3742 -82.9525 208° Southwest 470 541 36,000  Level Indianapolis Center
Sun 03:17:59 PM 37.2606 -83.0264 207° Southwest 465 535 36,000  Level Indianapolis Center
Sun 03:19:01 PM 37.1458 -83.1011 207° Southwest 465 535 36,000  Level Indianapolis Center
Sun 03:20:02 PM 37.0125 -83.1881 208° Southwest 466 536 36,000  Level Indianapolis Center
Sun 03:21:04 PM 36.8975 -83.2636 208° Southwest 467 537 36,000  Level Indianapolis Center
Sun 03:22:06 PM 36.7806 -83.3372 207° Southwest 469 540 36,000  Level Indianapolis Center
Sun 03:23:07 PM 36.6647 -83.4122 207° Southwest 469 540 36,000  Level Indianapolis Center
Sun 03:24:09 PM 36.5472 -83.4875 207° Southwest 471 542 36,000  Level Indianapolis Center
Sun 03:25:11 PM 36.4153 -83.5703 207° Southwest 471 542 36,000  Level Indianapolis Center
Sun 03:26:12 PM 36.2986 -83.6439 207° Southwest 471 542 36,000  Level Indianapolis Center
Sun 03:27:14 PM 36.1822 -83.7189 207° Southwest 471 542 36,000  Level Indianapolis Center
Sun 03:28:15 PM 36.0658 -83.7928 207° Southwest 470 541 36,000  Level Indianapolis Center
Sun 03:33:47 PM 35.3060 -84.0041 207° Southwest 516 594 36,000  Level FlightAware ADS-B (KDZJ)
Sun 03:34:32 PM 35.1973 -83.9994 178° South 502 578 36,000  Level FlightAware ADS-B (KDZJ)
Sun 03:35:06 PM 35.1208 -83.9963 178° South 499 574 36,000  Level FlightAware ADS-B (KDZJ)
Sun 03:35:48 PM 35.0231 -84.0079 186° South 469 540 36,000  Level FlightAware ADS-B (KDZJ)
Sun 03:36:29 PM 34.9368 -84.0353 195° South 479 551 36,000  Level FlightAware ADS-B (KDZJ)
Sun 03:37:08 PM 34.8521 -84.0615 194° South 479 551 36,000  Level FlightAware ADS-B (KDZJ)
Sun 03:39:05 PM 34.6010 -84.1394 194° South 480 552 36,000  Level FlightAware ADS-B (KDZJ)
Sun 03:40:04 PM 34.4731 -84.1788 194° South 479 551 36,000  Level FlightAware ADS-B (KDZJ)
Sun 03:40:52 PM 34.3701 -84.2104 194° South 479 551 36,000  Level FlightAware ADS-B (KDZJ)
Sun 03:41:32 PM 34.2840 -84.2367 194° South 478 550 36,000 74 Level FlightAware ADS-B (KDZJ)
Sun 03:42:13 PM 34.1966 -84.2635 194° South 479 551 36,100 370 Climbing FlightAware ADS-B (KDZJ)
Sun 03:42:53 PM 34.1104 -84.2896 194° South 467 537 36,500 532 Climbing FlightAware ADS-B (KDZJ)
Sun 03:43:32 PM 34.0279 -84.3146 194° South 465 535 36,800 385 Climbing FlightAware ADS-B (KDZJ)
Sun 03:44:11 PM 33.9756 -84.3319 194° South 485 558 37,000 121 Climbing Atlanta Center
Sun 03:45:11 PM 33.8461 -84.3714 194° South 474 545 37,000  Level Atlanta Center
Sun 03:46:11 PM 33.7144 -84.4083 193° South 474 545 37,000  Level Atlanta Center
Sun 03:47:11 PM 33.5892 -84.4328 189° South 474 545 37,000  Level Atlanta Center
Sun 03:48:11 PM 33.4556 -84.4347 181° South 480 552 37,000  Level Atlanta Center
Sun 03:49:11 PM 33.3178 -84.4342 180° South 487 560 37,000  Level Atlanta Center
Sun 03:50:11 PM 33.1675 -84.4308 179° South 492 566 37,000  Level Atlanta Center
Sun 03:51:11 PM 33.0297 -84.4278 179° South 492 566 37,000  Level Atlanta Center
Sun 03:52:11 PM 32.8897 -84.4272 180° South 499 574 37,000  Level Atlanta Center
Sun 03:53:11 PM 32.7708 -84.4192 177° South 494 568 37,000  Level Atlanta Center
Sun 03:54:11 PM 32.6353 -84.4161 179° South 494 568 37,000  Level Atlanta Center
Sun 03:55:11 PM 32.4975 -84.4131 179° South 494 568 37,000  Level Atlanta Center
Sun 03:56:11 PM 32.3617 -84.4125 180° South 494 568 37,000  Level Atlanta Center
Sun 03:58:35 PM 32.0397 -84.3117 165° South 499 574 37,000  Level Jacksonville Center
Sun 03:59:35 PM 31.8919 -84.2481 160° South 514 592 37,000  Level Jacksonville Center
Sun 04:05:22 PM 31.1200 -83.9332 160° South 503 579 37,000  Level FlightAware ADS-B (KONZ)
Sun 04:06:07 PM 31.0207 -83.8933 161° South 500 575 37,000  Level FlightAware ADS-B (KONZ)
Sun 04:06:46 PM 30.9354 -83.8591 161° South 499 574 37,000  Level FlightAware ADS-B (KONZ)
Sun 04:07:25 PM 30.8566 -83.8276 161° South 497 572 37,000  Level FlightAware ADS-B (KONZ)
Sun 04:08:07 PM 30.7609 -83.7894 161° South 498 573 37,000  Level FlightAware ADS-B (KONZ)
Sun 04:08:46 PM 30.6938 -83.7626 161° South 498 573 37,000  Level FlightAware ADS-B (KONZ)
Sun 04:09:16 PM 30.6086 -83.7286 161° South 498 573 37,000  Level FlightAware ADS-B (KONZ)
Sun 04:09:55 PM 30.5236 -83.6948 161° South 497 572 37,000  Level FlightAware ADS-B (KONZ)
Sun 04:10:26 PM 30.4563 -83.6682 161° South 496 571 37,000  Level FlightAware ADS-B (KONZ)
Sun 04:10:56 PM 30.3935 -83.6433 161° South 497 572 37,000  Level FlightAware ADS-B (KONZ)
Sun 04:11:27 PM 30.3272 -83.6170 161° South 498 573 37,000  Level FlightAware ADS-B (KONZ)
Sun 04:12:03 PM 30.2448 -83.5845 161° South 499 574 37,000  Level FlightAware ADS-B (KONZ)
Sun 04:13:04 PM 30.1128 -83.5325 161° South 499 574 37,000  Level FlightAware ADS-B (KONZ)
Sun 04:13:39 PM 30.0363 -83.5024 161° South 499 574 37,000  Level FlightAware ADS-B (KONZ)
Sun 04:17:12 PM 29.5786 -83.3234 161° South 500 575 37,000  Level FlightAware ADS-B
Sun 04:18:35 PM 29.4039 -83.2597 161° South 503 579 37,000  Level Jacksonville Center
Sun 04:24:36 PM 28.5997 -82.9464 161° South 492 566 37,000  Level FlightAware ADS-B
Sun 04:25:35 PM 28.4742 -82.8985 161° South 486 559 37,000  Level FlightAware ADS-B
Sun 04:26:10 PM 28.3983 -82.8697 162° South 484 557 37,000  Level FlightAware ADS-B
Sun 04:26:56 PM 28.3014 -82.8329 162° South 482 555 37,000  Level FlightAware ADS-B
Sun 04:27:26 PM 28.2383 -82.8090 162° South 481 554 37,000  Level FlightAware ADS-B
Sun 04:27:56 PM 28.1731 -82.7844 162° South 480 552 37,000  Level FlightAware ADS-B
Sun 04:28:27 PM 28.1094 -82.7602 162° South 479 551 37,000  Level FlightAware ADS-B
Sun 04:29:13 PM 28.0167 -82.7253 162° South 477 549 37,000  Level FlightAware ADS-B
Sun 04:29:46 PM 27.9445 -82.6975 161° South 477 549 37,000  Level FlightAware ADS-B
Sun 04:30:24 PM 27.8659 -82.6571 156° South 484 557 37,000  Level FlightAware ADS-B
Sun 04:30:57 PM 27.8036 -82.6155 149° Southeast 486 559 37,000  Level FlightAware ADS-B
Sun 04:31:37 PM 27.7279 -82.5642 149° Southeast 486 559 37,000  Level FlightAware ADS-B
Sun 04:32:16 PM 27.6653 -82.5224 149° Southeast 485 558 37,000  Level FlightAware ADS-B
Sun 04:32:46 PM 27.5921 -82.4737 149° Southeast 484 557 37,000  Level FlightAware ADS-B
Sun 04:33:20 PM 27.5275 -82.4308 149° Southeast 483 556 37,000  Level FlightAware ADS-B
Sun 04:33:57 PM 27.4601 -82.3861 150° Southeast 483 556 37,000  Level FlightAware ADS-B
Sun 04:34:27 PM 27.3979 -82.3452 150° Southeast 482 555 37,000  Level FlightAware ADS-B
Sun 04:34:46 PM 27.3619 -82.3290 158° South 473 544 37,000  Level FlightAware ADS-B
Sun 04:35:04 PM 27.3241 -82.3217 170° South 463 533 37,000  Level FlightAware ADS-B
Sun 04:35:37 PM 27.2496 -82.3252 182° South 460 529 37,000  Level FlightAware ADS-B
Sun 04:36:07 PM 27.1850 -82.3291 183° South 461 531 37,000 -100 Level FlightAware ADS-B
Sun 04:36:37 PM 27.1250 -82.3326 183° South 462 532 36,900 -659 Descending FlightAware ADS-B
Sun 04:37:38 PM 26.9943 -82.3405 183° South 461 531 36,000 -593 Descending FlightAware ADS-B
Sun 04:38:08 PM 26.9269 -82.3446 183° South 459 528 36,000  Level FlightAware ADS-B
Sun 04:38:38 PM 26.8633 -82.3485 183° South 456 525 36,000  Level FlightAware ADS-B
Sun 04:39:09 PM 26.8001 -82.3525 183° South 455 524 36,000  Level FlightAware ADS-B
Sun 04:39:49 PM 26.7184 -82.3575 183° South 456 525 36,000  Level FlightAware ADS-B
Sun 04:40:19 PM 26.6608 -82.3610 183° South 458 527 36,000  Level FlightAware ADS-B
Sun 04:40:58 PM 26.5713 -82.3665 183° South 457 526 36,000  Level FlightAware ADS-B
Sun 04:41:37 PM 26.4864 -82.3716 183° South 458 527 36,000  Level FlightAware ADS-B
Sun 04:42:08 PM 26.4307 -82.3750 183° South 460 529 36,000  Level FlightAware ADS-B
Sun 04:42:39 PM 26.3542 -82.3796 183° South 463 533 36,000  Level FlightAware ADS-B
Sun 04:43:18 PM 26.2710 -82.3846 183° South 463 533 36,000  Level FlightAware ADS-B
Sun 04:43:49 PM 26.2061 -82.3885 183° South 467 537 36,000  Level FlightAware ADS-B
Sun 04:44:19 PM 26.1392 -82.3925 183° South 469 540 36,000  Level FlightAware ADS-B
Sun 04:44:49 PM 26.0762 -82.3963 183° South 470 541 36,000  Level FlightAware ADS-B
Sun 04:45:19 PM 26.0105 -82.4003 183° South 469 540 36,000  Level FlightAware ADS-B
Sun 04:45:49 PM 25.9445 -82.4042 183° South 468 539 36,000  Level FlightAware ADS-B
Sun 04:46:29 PM 25.8572 -82.4095 183° South 469 540 36,000  Level FlightAware ADS-B
Sun 04:47:20 PM 25.7477 -82.4161 183° South 470 541 36,000  Level FlightAware ADS-B
Sun 04:48:10 PM 25.6393 -82.4225 183° South 469 540 36,000  Level FlightAware ADS-B
Sun 04:48:51 PM 25.5567 -82.4292 183° South 474 545 36,000  Level Miami Center
Sun 04:49:51 PM 25.4272 -82.4347 182° South 474 545 36,000  Level Miami Center
Sun 04:50:51 PM 25.2972 -82.4450 184° South 479 551 36,000 -300 Level Miami Center
Sun 04:51:51 PM 25.1656 -82.4525 183° South 479 551 35,400 -800 Descending Miami Center
Sun 04:52:51 PM 25.0358 -82.4581 182° South 479 551 34,400 -1,000 Descending Miami Center
Sun 04:53:51 PM 24.9144 -82.4664 184° South 466 536 33,400 -1,000 Descending Miami Center
Sun 04:54:51 PM 24.7931 -82.4744 183° South 455 524 32,400 -1,000 Descending Miami Center
Sun 04:55:51 PM 24.6697 -82.4825 183° South 449 517 31,400 -1,000 Descending Miami Center
Sun 04:56:51 PM 24.5461 -82.4883 182° South 444 511 30,400 -1,300 Descending Miami Center
Sun 04:57:51 PM 24.4289 -82.4969 184° South 444 511 28,800 -1,700 Descending Miami Center
Sun 04:58:51 PM 24.3203 -82.5011 182° South 439 505 27,000 -1,800 Descending Miami Center
Sun 04:59:51 PM 24.2094 -82.5097 184° South 426 490 25,200 -1,750 Descending Miami Center
Sun 05:00:51 PM 24.0942 -82.5158 183° South 420 483 23,500 -1,750 Descending Miami Center
Sun 05:01:51 PM 23.9856 -82.5200 182° South 409 471 21,700 -1,800 Descending Miami Center
Sun 05:03:00 PM 23.8508 -82.4974 171° South  Level FlightAware Approximate
Sun 05:10:00 PM 23.0269 -82.4000 180° South  Level FlightAware Approximate
Sun 05:11:00 PM 22.9891 -82.4091 180° South  Level Estimated
Sun 05:12:00 PM 22.9891 -82.4091 180° South  Level Estimated
Sun 05:13:00 PM 22.9891 -82.4091 180° South  Level Estimated
Sun 05:14:00 PM 22.9891 -82.4091 180° South  Level Estimated
Sun 05:15:00 PM 22.9891 -82.4091 180° South  Level Estimated
Sun 05:16:00 PM 22.9891 -82.4091 180° South  Level Estimated
Sun 05:17:00 PM 22.9891 -82.4091 180° South  Level Estimated
Sun 05:18:00 PM 22.9891 -82.4091 180° South  Level Estimated
Sun 05:19:00 PM 22.9891 -82.4091 180° South  Level Estimated
Sun 05:20:00 PM 22.9891 -82.4091 180° South  Level Estimated
Sun 05:21:00 PM 22.9891 -82.4091 180° South  Level Estimated
Sun 05:22:00 PM 22.9891 -82.4091 180° South  Level Estimated
Sun 05:23:00 PM 22.9891 -82.4091 180° South  Level Estimated
Sun 05:24:00 PM 22.9891 -82.4091 180° South  Level Estimated
Sun 05:25:00 PM 22.9891 -82.4091 180° South  Level Estimated
Sun 05:26:00 PM 22.9891 -82.4091 180° South  Level Estimated
Sun 05:27:00 PM 22.9891 -82.4091 180° South  Level Estimated
Sun 05:28:00 PM 22.9891 -82.4091 180° South  Level Estimated
Sun 05:29:00 PM 22.9891 -82.4091 180° South  Level Estimated
Sun 05:30:00 PM 22.9891 -82.4091 180° South  Level Estimated
Sun 05:31:00 PM 22.9891 -82.4091 180° South  Level Estimated
Sun 05:32:00 PM 22.9891 -82.4091 180° South  Level Estimated
Sun 05:33:00 PM 22.9891 -82.4091 180° South  Level Estimated

Login

Don't have an account? Register now (free) for customized features, flight alerts, and more!